sensor_id;sensor_type;location;lat;lon;timestamp;pressure;altitude;pressure_sealevel;temperature;humidity
43770;BME280;6597;52.218;9.882;2023-02-12T00:01:00;102767.09;;;8.20;100.00
43770;BME280;6597;52.218;9.882;2023-02-12T00:03:27;102756.59;;;8.16;100.00
43770;BME280;6597;52.218;9.882;2023-02-12T00:05:53;102774.91;;;8.16;100.00
43770;BME280;6597;52.218;9.882;2023-02-12T00:08:20;102767.06;;;8.17;100.00
43770;BME280;6597;52.218;9.882;2023-02-12T00:10:46;102773.19;;;8.18;100.00
43770;BME280;6597;52.218;9.882;2023-02-12T00:13:13;102784.53;;;8.20;100.00
43770;BME280;6597;52.218;9.882;2023-02-12T00:15:42;102784.53;;;8.20;100.00
43770;BME280;6597;52.218;9.882;2023-02-12T00:18:08;102785.41;;;8.20;100.00
43770;BME280;6597;52.218;9.882;2023-02-12T00:20:36;102778.44;;;8.22;100.00
43770;BME280;6597;52.218;9.882;2023-02-12T00:23:03;102782.81;;;8.22;100.00
43770;BME280;6597;52.218;9.882;2023-02-12T00:25:30;102781.94;;;8.21;100.00
43770;BME280;6597;52.218;9.882;2023-02-12T00:27:56;102786.28;;;8.19;100.00
43770;BME280;6597;52.218;9.882;2023-02-12T00:30:24;102781.03;;;8.18;100.00
43770;BME280;6597;52.218;9.882;2023-02-12T00:32:55;102785.41;;;8.20;100.00
43770;BME280;6597;52.218;9.882;2023-02-12T00:35:21;102787.16;;;8.20;100.00
43770;BME280;6597;52.218;9.882;2023-02-12T00:37:49;102780.16;;;8.19;100.00
43770;BME280;6597;52.218;9.882;2023-02-12T00:40:15;102778.41;;;8.18;100.00
43770;BME280;6597;52.218;9.882;2023-02-12T00:42:42;102776.66;;;8.17;100.00
43770;BME280;6597;52.218;9.882;2023-02-12T00:45:08;102787.94;;;8.12;100.00
43770;BME280;6597;52.218;9.882;2023-02-12T00:47:35;102788.81;;;8.11;100.00
43770;BME280;6597;52.218;9.882;2023-02-12T00:50:03;102788.78;;;8.08;100.00
43770;BME280;6597;52.218;9.882;2023-02-12T00:52:30;102789.66;;;8.07;100.00
43770;BME280;6597;52.218;9.882;2023-02-12T00:54:56;102788.75;;;8.04;100.00
43770;BME280;6597;52.218;9.882;2023-02-12T00:57:23;102795.69;;;7.99;100.00
43770;BME280;6597;52.218;9.882;2023-02-12T00:59:49;102789.59;;;7.98;100.00
43770;BME280;6597;52.218;9.882;2023-02-12T01:02:16;102790.47;;;7.99;100.00
43770;BME280;6597;52.218;9.882;2023-02-12T01:04:43;102799.19;;;7.98;100.00
43770;BME280;6597;52.218;9.882;2023-02-12T01:07:11;102798.28;;;7.96;100.00
43770;BME280;6597;52.218;9.882;2023-02-12T01:09:37;102800.03;;;7.95;100.00
43770;BME280;6597;52.218;9.882;2023-02-12T01:12:05;102794.81;;;7.97;100.00
43770;BME280;6597;52.218;9.882;2023-02-12T01:14:31;102801.78;;;7.98;100.00
43770;BME280;6597;52.218;9.882;2023-02-12T01:16:58;102807.91;;;8.00;100.00
43770;BME280;6597;52.218;9.882;2023-02-12T01:19:24;102803.56;;;8.00;100.00
43770;BME280;6597;52.218;9.882;2023-02-12T01:21:52;102801.78;;;7.95;100.00
43770;BME280;6597;52.218;9.882;2023-02-12T01:24:20;102806.16;;;7.97;100.00
43770;BME280;6597;52.218;9.882;2023-02-12T01:26:46;102810.50;;;7.95;100.00
43770;BME280;6597;52.218;9.882;2023-02-12T01:29:13;102810.47;;;7.92;100.00
43770;BME280;6597;52.218;9.882;2023-02-12T01:31:40;102810.47;;;7.92;100.00
43770;BME280;6597;52.218;9.882;2023-02-12T01:34:09;102808.69;;;7.88;100.00
43770;BME280;6597;52.218;9.882;2023-02-12T01:36:37;102798.25;;;7.90;100.00
43770;BME280;6597;52.218;9.882;2023-02-12T01:39:04;102804.31;;;7.87;100.00
43770;BME280;6597;52.218;9.882;2023-02-12T01:41:34;102791.16;;;7.78;100.00
43770;BME280;6597;52.218;9.882;2023-02-12T01:44:10;102811.19;;;7.77;100.00
43770;BME280;6597;52.218;9.882;2023-02-12T01:46:38;102812.91;;;7.74;100.00
43770;BME280;6597;52.218;9.882;2023-02-12T01:49:07;102816.38;;;7.71;100.00
43770;BME280;6597;52.218;9.882;2023-02-12T01:51:36;102808.47;;;7.67;100.00
43770;BME280;6597;52.218;9.882;2023-02-12T01:54:05;102809.31;;;7.64;100.00
43770;BME280;6597;52.218;9.882;2023-02-12T01:56:35;102802.34;;;7.63;100.00
43770;BME280;6597;52.218;9.882;2023-02-12T01:59:02;102805.81;;;7.61;100.00
43770;BME280;6597;52.218;9.882;2023-02-12T02:01:31;102806.69;;;7.61;100.00
43770;BME280;6597;52.218;9.882;2023-02-12T02:04:00;102812.78;;;7.62;100.00
43770;BME280;6597;52.218;9.882;2023-02-12T02:06:30;102815.41;;;7.62;100.00
43770;BME280;6597;52.218;9.882;2023-02-12T02:08:59;102811.06;;;7.62;100.00
43770;BME280;6597;52.218;9.882;2023-02-12T02:11:26;102804.06;;;7.61;100.00
43770;BME280;6597;52.218;9.882;2023-02-12T02:14:12;102797.09;;;7.60;100.00
43770;BME280;6597;52.218;9.882;2023-02-12T02:17:12;102803.19;;;7.59;100.00
43770;BME280;6597;52.218;9.882;2023-02-12T02:20:01;102806.69;;;7.61;100.00
43770;BME280;6597;52.218;9.882;2023-02-12T02:22:36;102817.16;;;7.61;100.00
43770;BME280;6597;52.218;9.882;2023-02-12T02:25:45;102809.31;;;7.61;100.00
43770;BME280;6597;52.218;9.882;2023-02-12T02:28:32;102806.69;;;7.61;100.00
43770;BME280;6597;52.218;9.882;2023-02-12T02:31:03;102806.69;;;7.60;100.00
43770;BME280;6597;52.218;9.882;2023-02-12T02:33:38;102811.03;;;7.61;100.00
43770;BME280;6597;52.218;9.882;2023-02-12T02:36:13;102804.03;;;7.58;100.00
43770;BME280;6597;52.218;9.882;2023-02-12T02:38:45;102807.50;;;7.54;100.00
43770;BME280;6597;52.218;9.882;2023-02-12T02:41:18;102802.28;;;7.54;100.00
43770;BME280;6597;52.218;9.882;2023-02-12T02:43:49;102795.28;;;7.52;100.00
43770;BME280;6597;52.218;9.882;2023-02-12T02:46:23;102798.75;;;7.51;100.00
43770;BME280;6597;52.218;9.882;2023-02-12T02:48:56;102803.16;;;7.55;100.00
43770;BME280;6597;52.218;9.882;2023-02-12T02:51:27;102803.16;;;7.55;100.00
43770;BME280;6597;52.218;9.882;2023-02-12T02:54:01;102804.00;;;7.52;100.00
43770;BME280;6597;52.218;9.882;2023-02-12T02:56:29;102805.72;;;7.52;100.00
43770;BME280;6597;52.218;9.882;2023-02-12T02:59:00;102804.81;;;7.48;100.00
43770;BME280;6597;52.218;9.882;2023-02-12T03:01:32;102802.25;;;7.51;100.00
43770;BME280;6597;52.218;9.882;2023-02-12T03:04:05;102814.47;;;7.54;100.00
43770;BME280;6597;52.218;9.882;2023-02-12T03:06:36;102811.84;;;7.52;100.00
43770;BME280;6597;52.218;9.882;2023-02-12T03:09:14;102810.09;;;7.53;100.00
43770;BME280;6597;52.218;9.882;2023-02-12T03:11:42;102815.31;;;7.51;100.00
43770;BME280;6597;52.218;9.882;2023-02-12T03:14:12;102817.06;;;7.52;100.00
43770;BME280;6597;52.218;9.882;2023-02-12T03:16:48;102816.25;;;7.58;100.00
43770;BME280;6597;52.218;9.882;2023-02-12T03:19:19;102820.50;;;7.48;100.00
43770;BME280;6597;52.218;9.882;2023-02-12T03:21:49;102824.91;;;7.52;100.00
43770;BME280;6597;52.218;9.882;2023-02-12T03:24:21;102820.50;;;7.48;100.00
43770;BME280;6597;52.218;9.882;2023-02-12T03:26:51;102830.09;;;7.49;100.00
43770;BME280;6597;52.218;9.882;2023-02-12T03:29:19;102828.34;;;7.48;100.00
43770;BME280;6597;52.218;9.882;2023-02-12T03:31:58;102833.56;;;7.48;100.00
43770;BME280;6597;52.218;9.882;2023-02-12T03:34:33;102835.28;;;7.47;100.00
43770;BME280;6597;52.218;9.882;2023-02-12T03:37:07;102839.69;;;7.50;100.00
43770;BME280;6597;52.218;9.882;2023-02-12T03:39:44;102831.78;;;7.47;100.00
43770;BME280;6597;52.218;9.882;2023-02-12T03:42:20;102839.56;;;7.42;100.00
43770;BME280;6597;52.218;9.882;2023-02-12T03:44:51;102835.19;;;7.40;100.00
43770;BME280;6597;52.218;9.882;2023-02-12T03:47:24;102842.19;;;7.44;100.00
43770;BME280;6597;52.218;9.882;2023-02-12T03:49:58;102847.44;;;7.44;100.00
43770;BME280;6597;52.218;9.882;2023-02-12T03:52:27;102841.34;;;7.45;100.00
43770;BME280;6597;52.218;9.882;2023-02-12T03:54:54;102850.03;;;7.42;100.00
43770;BME280;6597;52.218;9.882;2023-02-12T03:57:23;102851.75;;;7.40;100.00
43770;BME280;6597;52.218;9.882;2023-02-12T03:59:55;102848.28;;;7.41;100.00
43770;BME280;6597;52.218;9.882;2023-02-12T04:02:24;102858.75;;;7.43;100.00
43770;BME280;6597;52.218;9.882;2023-02-12T04:04:51;102862.22;;;7.42;100.00
43770;BME280;6597;52.218;9.882;2023-02-12T04:07:17;102862.13;;;7.34;100.00
43770;BME280;6597;52.218;9.882;2023-02-12T04:09:44;102857.78;;;7.33;100.00
43770;BME280;6597;52.218;9.882;2023-02-12T04:12:25;102856.00;;;7.31;100.00
43770;BME280;6597;52.218;9.882;2023-02-12T04:15:05;102866.53;;;7.37;100.00
43770;BME280;6597;52.218;9.882;2023-02-12T04:17:44;102871.69;;;7.31;100.00
43770;BME280;6597;52.218;9.882;2023-02-12T04:20:21;102876.94;;;7.34;100.00
43770;BME280;6597;52.218;9.882;2023-02-12T04:22:56;102880.44;;;7.34;100.00
43770;BME280;6597;52.218;9.882;2023-02-12T04:25:42;102883.06;;;7.37;100.00
43770;BME280;6597;52.218;9.882;2023-02-12T04:28:19;102883.88;;;7.32;100.00
43770;BME280;6597;52.218;9.882;2023-02-12T04:30:55;102880.38;;;7.30;100.00
43770;BME280;6597;52.218;9.882;2023-02-12T04:33:29;102879.41;;;7.22;100.00
43770;BME280;6597;52.218;9.882;2023-02-12T04:36:01;102882.88;;;7.19;100.00
43770;BME280;6597;52.218;9.882;2023-02-12T04:38:34;102892.47;;;7.22;100.00
43770;BME280;6597;52.218;9.882;2023-02-12T04:41:04;102887.22;;;7.18;100.00
43770;BME280;6597;52.218;9.882;2023-02-12T04:43:33;102895.91;;;7.17;100.00
43770;BME280;6597;52.218;9.882;2023-02-12T04:46:00;102894.16;;;7.16;100.00
43770;BME280;6597;52.218;9.882;2023-02-12T04:48:28;102895.91;;;7.19;100.00
43770;BME280;6597;52.218;9.882;2023-02-12T04:50:55;102902.06;;;7.23;100.00
43770;BME280;6597;52.218;9.882;2023-02-12T04:53:21;102895.84;;;7.14;100.00
43770;BME280;6597;52.218;9.882;2023-02-12T04:55:48;102903.72;;;7.16;100.00
43770;BME280;6597;52.218;9.882;2023-02-12T04:58:15;102908.09;;;7.18;100.00
43770;BME280;6597;52.218;9.882;2023-02-12T05:00:41;102908.09;;;7.17;100.00
43770;BME280;6597;52.218;9.882;2023-02-12T05:03:08;102907.16;;;7.15;100.00
43770;BME280;6597;52.218;9.882;2023-02-12T05:05:36;102900.22;;;7.15;100.00
43770;BME280;6597;52.218;9.882;2023-02-12T05:08:03;102902.88;;;7.18;100.00
43770;BME280;6597;52.218;9.882;2023-02-12T05:10:29;102898.44;;;7.14;100.00
43770;BME280;6597;52.218;9.882;2023-02-12T05:12:56;102899.31;;;7.13;100.00
43770;BME280;6597;52.218;9.882;2023-02-12T05:15:22;102896.72;;;7.15;100.00
43770;BME280;6597;52.218;9.882;2023-02-12T05:17:49;102902.84;;;7.15;100.00
43770;BME280;6597;52.218;9.882;2023-02-12T05:20:15;102905.38;;;7.11;100.00
43770;BME280;6597;52.218;9.882;2023-02-12T05:22:43;102898.41;;;7.11;100.00
43770;BME280;6597;52.218;9.882;2023-02-12T05:25:10;102902.72;;;7.09;100.00
43770;BME280;6597;52.218;9.882;2023-02-12T05:27:36;102897.50;;;7.09;100.00
43770;BME280;6597;52.218;9.882;2023-02-12T05:30:04;102895.78;;;7.10;100.00
43770;BME280;6597;52.218;9.882;2023-02-12T05:32:30;102906.22;;;7.10;100.00
43770;BME280;6597;52.218;9.882;2023-02-12T05:34:57;102902.72;;;7.09;100.00
43770;BME280;6597;52.218;9.882;2023-02-12T05:37:24;102900.09;;;7.08;100.00
43770;BME280;6597;52.218;9.882;2023-02-12T05:39:51;102902.72;;;7.09;100.00
43770;BME280;6597;52.218;9.882;2023-02-12T05:42:18;102898.38;;;7.10;100.00
43770;BME280;6597;52.218;9.882;2023-02-12T05:44:45;102903.63;;;7.10;100.00
43770;BME280;6597;52.218;9.882;2023-02-12T05:47:11;102894.91;;;7.11;100.00
43770;BME280;6597;52.218;9.882;2023-02-12T05:49:38;102900.13;;;7.11;100.00
43770;BME280;6597;52.218;9.882;2023-02-12T05:52:04;102907.06;;;7.07;100.00
43770;BME280;6597;52.218;9.882;2023-02-12T05:54:31;102906.22;;;7.10;100.00
43770;BME280;6597;52.218;9.882;2023-02-12T05:56:59;102911.47;;;7.11;100.00
43770;BME280;6597;52.218;9.882;2023-02-12T05:59:25;102907.97;;;7.11;100.00
43770;BME280;6597;52.218;9.882;2023-02-12T06:01:52;102910.56;;;7.09;100.00
43770;BME280;6597;52.218;9.882;2023-02-12T06:04:20;102915.78;;;7.08;100.00
43770;BME280;6597;52.218;9.882;2023-02-12T06:06:47;102918.38;;;7.06;100.00
43770;BME280;6597;52.218;9.882;2023-02-12T06:09:14;102904.31;;;6.98;100.00
43770;BME280;6597;52.218;9.882;2023-02-12T06:11:41;102917.50;;;7.07;100.00
43770;BME280;6597;52.218;9.882;2023-02-12T06:14:13;102909.66;;;7.07;100.00
43770;BME280;6597;52.218;9.882;2023-02-12T06:16:40;102918.38;;;7.08;100.00
43770;BME280;6597;52.218;9.882;2023-02-12T06:19:09;102920.97;;;7.06;100.00
43770;BME280;6597;52.218;9.882;2023-02-12T06:21:35;102918.38;;;7.06;100.00
43770;BME280;6597;52.218;9.882;2023-02-12T06:24:02;102917.50;;;7.06;100.00
43770;BME280;6597;52.218;9.882;2023-02-12T06:26:29;102918.38;;;7.08;100.00
43770;BME280;6597;52.218;9.882;2023-02-12T06:28:56;102909.69;;;7.09;100.00
43770;BME280;6597;52.218;9.882;2023-02-12T06:31:25;102908.84;;;7.11;100.00
43770;BME280;6597;52.218;9.882;2023-02-12T06:33:53;102914.06;;;7.10;100.00
43770;BME280;6597;52.218;9.882;2023-02-12T06:36:20;102921.88;;;7.08;100.00
43770;BME280;6597;52.218;9.882;2023-02-12T06:38:47;102912.22;;;7.03;100.00
43770;BME280;6597;52.218;9.882;2023-02-12T06:41:14;102916.59;;;7.04;100.00
43770;BME280;6597;52.218;9.882;2023-02-12T06:43:41;102921.88;;;7.08;100.00
43770;BME280;6597;52.218;9.882;2023-02-12T06:46:08;102922.66;;;7.03;100.00
43770;BME280;6597;52.218;9.882;2023-02-12T06:48:36;102925.25;;;7.01;100.00
43770;BME280;6597;52.218;9.882;2023-02-12T06:51:04;102933.94;;;7.00;100.00
43770;BME280;6597;52.218;9.882;2023-02-12T06:53:31;102938.28;;;7.00;100.00
43770;BME280;6597;52.218;9.882;2023-02-12T06:55:59;102932.19;;;6.99;100.00
43770;BME280;6597;52.218;9.882;2023-02-12T06:58:26;102940.94;;;7.03;100.00
43770;BME280;6597;52.218;9.882;2023-02-12T07:00:52;102941.00;;;7.06;100.00
43770;BME280;6597;52.218;9.882;2023-02-12T07:03:19;102948.81;;;7.04;100.00
43770;BME280;6597;52.218;9.882;2023-02-12T07:05:47;102952.28;;;7.05;100.00
43770;BME280;6597;52.218;9.882;2023-02-12T07:08:13;102958.34;;;7.02;100.00
43770;BME280;6597;52.218;9.882;2023-02-12T07:10:40;102950.59;;;7.08;100.00
43770;BME280;6597;52.218;9.882;2023-02-12T07:13:06;102953.22;;;7.08;100.00
43770;BME280;6597;52.218;9.882;2023-02-12T07:15:37;102958.50;;;7.13;100.00
43770;BME280;6597;52.218;9.882;2023-02-12T07:18:04;102962.81;;;7.11;100.00
43770;BME280;6597;52.218;9.882;2023-02-12T07:20:31;102969.78;;;7.10;100.00
43770;BME280;6597;52.218;9.882;2023-02-12T07:22:59;102969.84;;;7.15;100.00
43770;BME280;6597;52.218;9.882;2023-02-12T07:25:26;102961.13;;;7.14;100.00
43770;BME280;6597;52.218;9.882;2023-02-12T07:27:53;102963.78;;;7.16;100.00
43770;BME280;6597;52.218;9.882;2023-02-12T07:30:20;102970.81;;;7.20;100.00
43770;BME280;6597;52.218;9.882;2023-02-12T07:32:46;102976.97;;;7.24;100.00
43770;BME280;6597;52.218;9.882;2023-02-12T07:35:14;102973.50;;;7.25;100.00
43770;BME280;6597;52.218;9.882;2023-02-12T07:37:41;102969.19;;;7.28;100.00
43770;BME280;6597;52.218;9.882;2023-02-12T07:40:10;102977.97;;;7.35;100.00
43770;BME280;6597;52.218;9.882;2023-02-12T07:42:41;102978.88;;;7.38;100.00
43770;BME280;6597;52.218;9.882;2023-02-12T07:45:09;102976.34;;;7.43;100.00
43770;BME280;6597;52.218;9.882;2023-02-12T07:47:36;102975.50;;;7.47;100.00
43770;BME280;6597;52.218;9.882;2023-02-12T07:50:05;102970.41;;;7.53;100.00
43770;BME280;6597;52.218;9.882;2023-02-12T07:52:33;102973.03;;;7.56;100.00
43770;BME280;6597;52.218;9.882;2023-02-12T07:55:00;102971.41;;;7.64;100.00
43770;BME280;6597;52.218;9.882;2023-02-12T07:57:28;102981.88;;;7.67;100.00
43770;BME280;6597;52.218;9.882;2023-02-12T07:59:55;102981.06;;;7.71;100.00
43770;BME280;6597;52.218;9.882;2023-02-12T08:02:22;102982.78;;;7.71;100.00
43770;BME280;6597;52.218;9.882;2023-02-12T08:04:54;102982.81;;;7.72;100.00
43770;BME280;6597;52.218;9.882;2023-02-12T08:07:22;102979.41;;;7.79;100.00
43770;BME280;6597;52.218;9.882;2023-02-12T08:09:48;102984.69;;;7.81;100.00
43770;BME280;6597;52.218;9.882;2023-02-12T08:12:15;102966.28;;;7.75;100.00
43770;BME280;6597;52.218;9.882;2023-02-12T08:14:43;102980.41;;;7.88;100.00
43770;BME280;6597;52.218;9.882;2023-02-12T08:17:10;102987.47;;;7.96;100.00
43770;BME280;6597;52.218;9.882;2023-02-12T08:19:37;102987.56;;;8.05;100.00
43770;BME280;6597;52.218;9.882;2023-02-12T08:22:03;102985.78;;;8.03;100.00
43770;BME280;6597;52.218;9.882;2023-02-12T08:24:31;102975.34;;;8.06;100.00
43770;BME280;6597;52.218;9.882;2023-02-12T08:26:58;102984.00;;;7.99;100.00
43770;BME280;6597;52.218;9.882;2023-02-12T08:29:27;102982.25;;;7.99;100.00
43770;BME280;6597;52.218;9.882;2023-02-12T08:31:57;102985.75;;;8.00;100.00
43770;BME280;6597;52.218;9.882;2023-02-12T08:34:25;102988.56;;;8.15;100.00
43770;BME280;6597;52.218;9.882;2023-02-12T08:36:53;102995.59;;;8.22;100.00
43770;BME280;6597;52.218;9.882;2023-02-12T08:39:22;102996.56;;;8.32;100.00
43770;BME280;6597;52.218;9.882;2023-02-12T08:41:49;103000.03;;;8.31;100.00
43770;BME280;6597;52.218;9.882;2023-02-12T08:44:16;103012.25;;;8.30;100.00
43770;BME280;6597;52.218;9.882;2023-02-12T08:46:45;103003.47;;;8.25;100.00
43770;BME280;6597;52.218;9.882;2023-02-12T08:49:15;103005.25;;;8.29;100.00
43770;BME280;6597;52.218;9.882;2023-02-12T08:51:44;103017.53;;;8.33;100.00
43770;BME280;6597;52.218;9.882;2023-02-12T08:54:16;102992.97;;;8.21;100.00
43770;BME280;6597;52.218;9.882;2023-02-12T08:56:57;103016.59;;;8.27;100.00
43770;BME280;6597;52.218;9.882;2023-02-12T08:59:35;103018.38;;;8.32;100.00
43770;BME280;6597;52.218;9.882;2023-02-12T09:02:02;103021.09;;;8.38;100.00
43770;BME280;6597;52.218;9.882;2023-02-12T09:04:34;103013.25;;;8.41;100.00
43770;BME280;6597;52.218;9.882;2023-02-12T09:07:01;103017.63;;;8.41;100.00
43770;BME280;6597;52.218;9.882;2023-02-12T09:09:27;103026.38;;;8.43;100.00
43770;BME280;6597;52.218;9.882;2023-02-12T09:11:54;103020.31;;;8.46;100.00
43770;BME280;6597;52.218;9.882;2023-02-12T09:14:21;103020.19;;;8.35;100.00
43770;BME280;6597;52.218;9.882;2023-02-12T09:16:49;103030.81;;;8.50;100.00
43770;BME280;6597;52.218;9.882;2023-02-12T09:19:16;103034.34;;;8.52;100.00
43770;BME280;6597;52.218;9.882;2023-02-12T09:21:44;103029.16;;;8.58;100.00
43770;BME280;6597;52.218;9.882;2023-02-12T09:24:11;103027.34;;;8.53;100.00
43770;BME280;6597;52.218;9.882;2023-02-12T09:26:38;103031.72;;;8.52;100.00
43770;BME280;6597;52.218;9.882;2023-02-12T09:29:04;103030.81;;;8.50;100.00
43770;BME280;6597;52.218;9.882;2023-02-12T09:31:32;103036.09;;;8.55;100.00
43770;BME280;6597;52.218;9.882;2023-02-12T09:34:00;103045.75;;;8.62;100.00
43770;BME280;6597;52.218;9.882;2023-02-12T09:36:28;103043.19;;;8.68;100.00
43770;BME280;6597;52.218;9.882;2023-02-12T09:38:56;103046.72;;;8.73;100.00
43770;BME280;6597;52.218;9.882;2023-02-12T09:44:34;103046.88;;;8.88;100.00
43770;BME280;6597;52.218;9.882;2023-02-12T09:47:07;103047.81;;;8.98;100.00
43770;BME280;6597;52.218;9.882;2023-02-12T09:49:54;103048.72;;;9.03;100.00
43770;BME280;6597;52.218;9.882;2023-02-12T09:52:25;103053.25;;;9.19;100.00
43770;BME280;6597;52.218;9.882;2023-02-12T09:54:53;103048.97;;;9.33;100.00
43770;BME280;6597;52.218;9.882;2023-02-12T09:57:24;103049.94;;;9.49;100.00
43770;BME280;6597;52.218;9.882;2023-02-12T09:59:57;103049.13;;;9.61;100.00
43770;BME280;6597;52.218;9.882;2023-02-12T10:02:24;103049.16;;;9.70;100.00
43770;BME280;6597;52.218;9.882;2023-02-12T10:04:52;103050.94;;;9.74;99.01
43770;BME280;6597;52.218;9.882;2023-02-12T10:07:28;103045.78;;;9.86;99.13
43770;BME280;6597;52.218;9.882;2023-02-12T10:10:20;103051.03;;;9.94;97.60
43770;BME280;6597;52.218;9.882;2023-02-12T10:12:56;103057.16;;;9.93;96.93
43770;BME280;6597;52.218;9.882;2023-02-12T10:15:36;103056.28;;;9.88;96.67
43770;BME280;6597;52.218;9.882;2023-02-12T10:18:32;103059.72;;;9.76;96.89
43770;BME280;6597;52.218;9.882;2023-02-12T10:21:15;103067.53;;;9.68;96.82
43770;BME280;6597;52.218;9.882;2023-02-12T10:23:55;103056.19;;;9.74;96.71
43770;BME280;6597;52.218;9.882;2023-02-12T10:26:29;103062.38;;;9.81;97.40
43770;BME280;6597;52.218;9.882;2023-02-12T10:28:58;103059.69;;;9.75;97.08
43770;BME280;6597;52.218;9.882;2023-02-12T10:31:29;103055.31;;;9.74;97.65
43770;BME280;6597;52.218;9.882;2023-02-12T10:33:57;103064.97;;;9.78;97.64
43770;BME280;6597;52.218;9.882;2023-02-12T10:36:32;103057.06;;;9.73;97.84
43770;BME280;6597;52.218;9.882;2023-02-12T10:39:06;103058.00;;;9.80;97.64
43770;BME280;6597;52.218;9.882;2023-02-12T10:41:43;103064.13;;;9.85;95.85
43770;BME280;6597;52.218;9.882;2023-02-12T10:44:12;103055.38;;;9.87;96.46
43770;BME280;6597;52.218;9.882;2023-02-12T10:46:38;103063.28;;;9.96;95.80
43770;BME280;6597;52.218;9.882;2023-02-12T10:49:06;103052.81;;;10.03;95.86
43770;BME280;6597;52.218;9.882;2023-02-12T10:51:42;103052.81;;;10.03;94.91
43770;BME280;6597;52.218;9.882;2023-02-12T10:54:38;103055.44;;;9.99;94.45
43770;BME280;6597;52.218;9.882;2023-02-12T10:57:10;103055.47;;;10.07;94.58
43770;BME280;6597;52.218;9.882;2023-02-12T10:59:39;103051.06;;;10.05;93.79
43770;BME280;6597;52.218;9.882;2023-02-12T11:02:18;103060.69;;;10.07;93.96
43770;BME280;6597;52.218;9.882;2023-02-12T11:04:46;103055.50;;;10.10;94.10
43770;BME280;6597;52.218;9.882;2023-02-12T11:07:13;103053.81;;;10.23;93.57
43770;BME280;6597;52.218;9.882;2023-02-12T11:09:42;103052.06;;;10.29;92.55
43770;BME280;6597;52.218;9.882;2023-02-12T11:12:25;103048.63;;;10.43;92.63
43770;BME280;6597;52.218;9.882;2023-02-12T11:14:57;103050.38;;;10.59;92.11
43770;BME280;6597;52.218;9.882;2023-02-12T11:17:26;103051.31;;;10.76;90.92
43770;BME280;6597;52.218;9.882;2023-02-12T11:20:05;103054.81;;;10.81;88.99
43770;BME280;6597;52.218;9.882;2023-02-12T11:22:34;103053.00;;;10.67;88.59
43770;BME280;6597;52.218;9.882;2023-02-12T11:25:09;103035.50;;;10.56;89.47
43770;BME280;6597;52.218;9.882;2023-02-12T11:27:41;103046.88;;;10.42;90.07
43770;BME280;6597;52.218;9.882;2023-02-12T11:30:18;103046.84;;;10.37;90.16
43770;BME280;6597;52.218;9.882;2023-02-12T11:32:45;103044.19;;;10.26;90.08
43770;BME280;6597;52.218;9.882;2023-02-12T11:35:15;103052.06;;;10.26;91.16
43770;BME280;6597;52.218;9.882;2023-02-12T11:37:49;103045.06;;;10.24;90.23
43770;BME280;6597;52.218;9.882;2023-02-12T11:40:19;103031.94;;;10.30;90.84
43770;BME280;6597;52.218;9.882;2023-02-12T11:42:51;103038.94;;;10.33;90.62
43770;BME280;6597;52.218;9.882;2023-02-12T11:45:21;103034.59;;;10.38;90.45
43770;BME280;6597;52.218;9.882;2023-02-12T11:47:52;103035.47;;;10.40;90.85
43770;BME280;6597;52.218;9.882;2023-02-12T11:50:24;103031.97;;;10.38;89.92
43770;BME280;6597;52.218;9.882;2023-02-12T11:52:55;103027.59;;;10.40;90.04
43770;BME280;6597;52.218;9.882;2023-02-12T11:55:24;103021.44;;;10.30;90.25
43770;BME280;6597;52.218;9.882;2023-02-12T11:57:54;103025.81;;;10.34;90.97
43770;BME280;6597;52.218;9.882;2023-02-12T12:00:28;103024.06;;;10.32;90.85
43770;BME280;6597;52.218;9.882;2023-02-12T12:03:01;103025.81;;;10.29;90.65
43770;BME280;6597;52.218;9.882;2023-02-12T12:05:34;103021.50;;;10.41;90.55
43770;BME280;6597;52.218;9.882;2023-02-12T12:08:05;103022.38;;;10.43;89.97
43770;BME280;6597;52.218;9.882;2023-02-12T12:10:37;103021.47;;;10.39;90.29
43770;BME280;6597;52.218;9.882;2023-02-12T12:13:11;103018.84;;;10.39;90.05
43770;BME280;6597;52.218;9.882;2023-02-12T12:15:43;103018.88;;;10.41;89.99
43770;BME280;6597;52.218;9.882;2023-02-12T12:18:33;103019.66;;;10.18;90.64
43770;BME280;6597;52.218;9.882;2023-02-12T12:21:23;103029.31;;;10.24;91.30
43770;BME280;6597;52.218;9.882;2023-02-12T12:23:54;103019.69;;;10.34;90.99
43770;BME280;6597;52.218;9.882;2023-02-12T12:26:25;103016.25;;;10.45;89.47
43770;BME280;6597;52.218;9.882;2023-02-12T12:29:00;103018.88;;;10.45;89.22
43770;BME280;6597;52.218;9.882;2023-02-12T12:31:32;103013.63;;;10.47;88.99
43770;BME280;6597;52.218;9.882;2023-02-12T12:34:05;103016.25;;;10.41;90.39
43770;BME280;6597;52.218;9.882;2023-02-12T12:36:52;103015.38;;;10.48;90.90
43770;BME280;6597;52.218;9.882;2023-02-12T12:39:33;103017.13;;;10.52;90.80
43770;BME280;6597;52.218;9.882;2023-02-12T12:42:29;103010.13;;;10.57;91.01
43770;BME280;6597;52.218;9.882;2023-02-12T12:45:14;103006.63;;;10.55;91.58
43770;BME280;6597;52.218;9.882;2023-02-12T12:47:59;103000.44;;;10.28;92.02
43770;BME280;6597;52.218;9.882;2023-02-12T12:50:39;103003.94;;;10.21;93.32
43770;BME280;6597;52.218;9.882;2023-02-12T12:53:20;102998.69;;;10.23;93.71
43770;BME280;6597;52.218;9.882;2023-02-12T12:55:58;102989.94;;;10.24;92.94
43770;BME280;6597;52.218;9.882;2023-02-12T12:58:41;102997.81;;;10.28;93.95
43770;BME280;6597;52.218;9.882;2023-02-12T13:01:23;102989.94;;;10.36;93.64
43770;BME280;6597;52.218;9.882;2023-02-12T13:04:13;102991.69;;;10.39;93.19
43770;BME280;6597;52.218;9.882;2023-02-12T13:06:53;102982.94;;;10.29;91.73
43770;BME280;6597;52.218;9.882;2023-02-12T13:09:41;102982.91;;;10.14;92.50
43770;BME280;6597;52.218;9.882;2023-02-12T13:12:37;102988.09;;;10.08;93.89
43770;BME280;6597;52.218;9.882;2023-02-12T13:15:17;102981.97;;;9.98;94.06
43770;BME280;6597;52.218;9.882;2023-02-12T13:17:50;102978.44;;;9.90;94.41
43770;BME280;6597;52.218;9.882;2023-02-12T13:20:26;102976.72;;;9.98;95.07
43770;BME280;6597;52.218;9.882;2023-02-12T13:22:59;102969.72;;;10.06;94.60